Main page
METAR-TAF:

METAR-TAF

Airports :

Dr. Babasaheb Ambedkar International Airport

Nagpur, India

latitude: 21-06N, longitude: 079-03E, elevation: 308 m

Current weather observation

The report was made 13 minutes ago, at 01:30 UTC
Wind 2 kt from the North/Northeast
Temperature 23°C
Humidity 78%
Pressure 1014 hPa
Visibility: 2000 m
Few clouds at a height of 10000 ft
mist

METAR: VANP 260130Z 02002KT 2000 BR FEW100 23/19 Q1014 NOSIG

Time: 07:13 (01:43 UTC)

Forecast

The report was made 2 hours and 43 minutes ago, at 23:00 UTC
Forecast valid from 26 at 00 UTC to 27 at 06 UTC
Wind kt from the North
Visibility: 2000 m
Few clouds at a height of 10000 ft
mist
Becoming
from 26 at 04 UTC to 26 at 06 UTC
Visibility: 3500 m
haze
Becoming
from 27 at 00 UTC to 27 at 02 UTC
Visibility: 2000 m
mist
Becoming
from 27 at 04 UTC to 27 at 06 UTC
Visibility: 3500 m
haze

TAF: VANP 252300Z 2600/2706 00000KT 2000 BR FEW100 BECMG 2604/2606 3500 HZ BECMG 2700/2702 2000 BR BECMG 2704/2706 3500 HZ

Weather observations and forecasts of more than 4000 airports (METAR and TAF reports).

The available stations are represented by yellow and red dots on the map.

Hover mouse over dot to see the name of the station.

Then click to see weather observations and forecasts.

To change the map : click on the green buttons with a black cross to zoom in, on the green button with a dash to zoom out, or on the green arrows for adjacent maps.


METAR-TAF: